Washington, District of Columbia
Traffic Map
Current Weather Conditions
Washington, District of Columbia
Clear
Clear
21°
Feels Like: 21°
Wind Chill: 21° Ceiling: Unl
Heat Index: 21° Visibility: 10mi
Dew Point: 11° Wind: 7mph
Humidity: 53% Direction: 10° (N)
Pressure: 30.09in Gusts: 0mph
Raw Report DataKDCA 301252Z 01006KT 10SM CLR 21/11 A3009 RMK AO2 SLP189 T02110111
Traffic Incident Summary
Active as of:
Severity:
Category:
InformationThere was an issue retrieving the traffic information for this location. Please try a different location or try again shortly.
Advertisements
Track Severe Weather on mobile